Time;durP1;ratioP1;P1;durP2;ratioP2;P2;SDS_P1;SDS_P2;PMS_P1;PMS_P2;Temp;Humidity;BMP_temperature;BMP_pressure;BME280_temperature;BME280_humidity;BME280_pressure;Samples;Min_cycle;Max_cycle;Signal;HPM_P1;HPM_P2
2023/09/03 00:01:44;;;;;;;26.60;23.80;;;12.20;99.90;;;;;;6092367;23;20373;-87
2023/09/03 00:04:10;;;;;;;29.42;25.98;;;12.40;99.90;;;;;;6119230;23;20440;-87
2023/09/03 00:06:36;;;;;;;26.07;23.57;;;12.30;99.90;;;;;;6117031;23;20377;-88
2023/09/03 00:09:04;;;;;;;28.43;25.57;;;11.90;99.90;;;;;;6095028;23;20443;-87
2023/09/03 00:11:30;;;;;;;24.05;21.58;;;11.90;99.90;;;;;;6118001;23;20404;-87
2023/09/03 00:13:55;;;;;;;26.27;23.48;;;12.90;99.90;;;;;;6118270;23;20419;-87
2023/09/03 00:16:21;;;;;;;23.80;21.40;;;11.90;99.90;;;;;;6119493;23;20381;-88
2023/09/03 00:18:47;;;;;;;30.60;27.40;;;12.10;99.90;;;;;;6116953;23;20369;-87
2023/09/03 00:21:13;;;;;;;24.35;21.95;;;11.90;99.90;;;;;;6119167;23;20404;-88
2023/09/03 00:23:39;;;;;;;22.33;19.63;;;11.00;99.90;;;;;;6092461;23;20372;-87
2023/09/03 00:26:05;;;;;;;21.70;19.48;;;11.70;99.90;;;;;;6119641;23;20372;-86
2023/09/03 00:28:31;;;;;;;25.85;23.25;;;11.90;99.90;;;;;;6117451;23;20392;-87
2023/09/03 00:31:04;;;;;;;27.88;25.08;;;11.60;99.90;;;;;;6094360;23;20862;-87
2023/09/03 00:33:31;;;;;;;27.17;24.57;;;11.60;99.90;;;;;;6118901;23;20377;-87
2023/09/03 00:36:00;;;;;;;28.27;25.33;;;11.60;99.90;;;;;;6116981;23;20908;-88
2023/09/03 00:38:25;;;;;;;28.48;25.60;;;11.60;99.90;;;;;;6094896;23;20766;-87
2023/09/03 00:40:51;;;;;;;31.67;28.30;;;11.80;99.90;;;;;;6116697;23;20364;-87
2023/09/03 00:43:17;;;;;;;45.87;35.37;;;11.70;99.90;;;;;;6119238;23;20383;-87
2023/09/03 00:45:43;;;;;;;29.20;26.00;;;11.90;99.90;;;;;;6092537;23;20751;-87
2023/09/03 00:48:12;;;;;;;30.40;27.20;;;11.80;99.90;;;;;;6118453;23;20392;-86
2023/09/03 00:50:38;;;;;;;87.38;42.22;;;11.50;99.90;;;;;;6118267;23;20893;-87
2023/09/03 00:53:05;;;;;;;35.55;31.08;;;11.90;99.90;;;;;;6117225;23;20376;-87
2023/09/03 00:55:32;;;;;;;36.95;33.10;;;11.80;99.90;;;;;;6118922;23;20413;-87
2023/09/03 00:57:59;;;;;;;44.80;33.38;;;12.00;99.90;;;;;;6116498;23;20381;-87
2023/09/03 01:00:25;;;;;;;38.00;32.20;;;11.70;99.90;;;;;;6118689;23;20373;-86
2023/09/03 01:02:55;;;;;;;42.63;34.53;;;11.60;99.90;;;;;;6116468;23;20730;-87
2023/09/03 01:05:21;;;;;;;67.45;39.72;;;11.60;99.90;;;;;;6118782;23;20379;-87
2023/09/03 01:07:48;;;;;;;91.05;40.90;;;11.20;99.90;;;;;;6117677;23;20773;-88
2023/09/03 01:10:16;;;;;;;38.90;34.50;;;11.60;99.90;;;;;;6117092;23;20750;-87
2023/09/03 01:13:30;;;;;;;42.67;37.50;;;11.60;99.90;;;;;;6118103;23;20699;-87
2023/09/03 01:15:58;;;;;;;40.05;35.67;;;11.60;99.90;;;;;;6109560;23;20381;-87
2023/09/03 01:18:26;;;;;;;43.70;38.90;;;11.70;99.90;;;;;;6118345;23;20391;-87
2023/09/03 01:21:13;;;;;;;35.70;32.10;;;11.70;99.90;;;;;;6093386;23;20698;-87
2023/09/03 01:23:58;;;;;;;40.83;36.03;;;11.70;99.90;;;;;;6115959;23;20377;-87
2023/09/03 01:26:42;;;;;;;37.05;33.15;;;11.80;99.90;;;;;;6094196;23;20384;-88
2023/09/03 01:29:09;;;;;;;33.67;30.35;;;11.80;99.90;;;;;;6092259;23;20437;-87
2023/09/03 01:31:36;;;;;;;33.95;30.50;;;11.80;99.90;;;;;;6117904;23;20397;-88
2023/09/03 01:34:03;;;;;;;35.37;31.77;;;11.80;99.90;;;;;;6094121;23;20373;-87
2023/09/03 01:36:33;;;;;;;32.10;28.90;;;11.90;99.90;;;;;;6116360;23;20377;-88
2023/09/03 01:39:03;;;;;;;36.95;33.10;;;11.70;99.90;;;;;;6118467;23;20389;-88
2023/09/03 01:41:34;;;;;;;30.40;27.40;;;11.90;99.90;;;;;;6116191;23;20431;-87
2023/09/03 01:44:02;;;;;;;28.00;25.25;;;11.90;99.90;;;;;;6094136;23;20403;-87
2023/09/03 01:46:47;;;;;;;27.92;25.10;;;12.80;99.90;;;;;;6116692;23;20782;-88
2023/09/03 01:49:49;;;;;;;28.45;25.52;;;11.90;99.90;;;;;;6116880;23;20929;-87
2023/09/03 01:52:39;;;;;;;26.83;24.17;;;11.90;99.90;;;;;;6118341;23;20754;-87
2023/09/03 01:55:10;;;;;;;24.80;22.38;;;12.00;99.90;;;;;;6092373;23;20373;-86
2023/09/03 01:57:51;;;;;;;23.02;20.83;;;11.80;99.90;;;;;;6117707;23;20404;-88
2023/09/03 02:00:18;;;;;;;23.05;20.95;;;11.80;99.90;;;;;;6118515;23;20388;-87
2023/09/03 02:02:47;;;;;;;25.90;21.98;;;11.80;99.90;;;;;;6091508;23;20373;-88
2023/09/03 02:05:13;;;;;;;26.50;23.77;;;11.80;99.90;;;;;;6118151;23;20391;-88
2023/09/03 02:07:40;;;;;;;27.90;24.70;;;11.80;99.90;;;;;;6115870;23;20380;-88
2023/09/03 02:10:06;;;;;;;18.92;17.25;;;12.00;99.90;;;;;;6093419;23;20397;-86
2023/09/03 02:12:32;;;;;;;21.65;19.65;;;11.70;99.90;;;;;;6117060;23;20400;-87
2023/09/03 02:14:58;;;;;;;22.98;20.73;;;11.80;99.90;;;;;;6092999;23;20423;-86
2023/09/03 02:17:24;;;;;;;20.65;18.80;;;11.80;99.90;;;;;;6093571;23;20377;-87
2023/09/03 02:19:51;;;;;;;19.48;17.73;;;11.70;99.90;;;;;;6115973;23;20376;-87
2023/09/03 02:22:17;;;;;;;22.20;19.88;;;11.70;99.90;;;;;;6118210;23;20369;-87
2023/09/03 02:24:43;;;;;;;32.08;27.00;;;11.70;99.90;;;;;;6091119;23;20369;-88
2023/09/03 02:27:09;;;;;;;23.92;21.58;;;11.60;99.90;;;;;;6118089;23;20439;-88
2023/09/03 02:29:36;;;;;;;16.00;14.50;;;11.70;99.90;;;;;;6091601;23;20428;-87
2023/09/03 02:32:02;;;;;;;16.77;13.75;;;11.90;99.90;;;;;;6093563;23;20380;-88
2023/09/03 02:34:27;;;;;;;20.10;15.73;;;11.50;99.90;;;;;;6117217;23;20846;-87
2023/09/03 02:36:53;;;;;;;22.77;16.38;;;11.30;99.90;;;;;;6116644;23;20456;-88
2023/09/03 02:39:19;;;;;;;17.40;14.57;;;11.80;99.90;;;;;;6118485;23;20412;-88
2023/09/03 02:41:44;;;;;;;16.97;15.40;;;12.00;99.90;;;;;;6115764;23;20377;-88
2023/09/03 02:44:10;;;;;;;11.60;10.60;;;11.50;99.90;;;;;;6093736;23;20373;-87
2023/09/03 02:46:36;;;;;;;160.27;21.08;;;11.90;99.90;;;;;;6091158;23;20824;-87
2023/09/03 02:49:02;;;;;;;12.70;11.60;;;11.50;99.90;;;;;;6093449;23;20456;-88
2023/09/03 02:51:28;;;;;;;16.95;11.40;;;11.30;99.90;;;;;;6092048;23;20397;-87
2023/09/03 02:53:57;;;;;;;10.90;10.00;;;11.60;99.90;;;;;;6117006;23;20684;-88
2023/09/03 02:56:23;;;;;;;12.18;11.18;;;11.10;99.90;;;;;;6117892;23;20742;-87
2023/09/03 02:58:49;;;;;;;13.13;12.02;;;11.70;99.90;;;;;;6115689;23;20381;-88
2023/09/03 03:01:17;;;;;;;11.93;10.88;;;11.40;99.90;;;;;;6117832;23;20373;-88
2023/09/03 03:03:43;;;;;;;11.38;10.38;;;11.20;99.90;;;;;;6090922;23;20384;-88
2023/09/03 03:06:09;;;;;;;14.70;13.35;;;11.70;99.90;;;;;;6093462;23;20873;-88
2023/09/03 03:08:35;;;;;;;13.88;12.68;;;11.40;99.90;;;;;;6115904;23;20421;-87
2023/09/03 03:11:08;;;;;;;13.85;12.65;;;11.10;99.90;;;;;;6117188;23;20401;-87
2023/09/03 03:13:35;;;;;;;13.68;12.38;;;11.10;99.90;;;;;;6117329;23;20388;-88
2023/09/03 03:16:08;;;;;;;13.30;12.10;;;11.10;99.90;;;;;;6091384;23;20373;-87
2023/09/03 03:18:35;;;;;;;20.20;17.08;;;11.10;99.90;;;;;;6093525;23;20868;-88
2023/09/03 03:21:04;;;;;;;13.80;12.47;;;11.30;99.90;;;;;;6115325;23;20394;-88
2023/09/03 03:23:30;;;;;;;14.70;13.37;;;11.00;99.90;;;;;;6118040;23;20372;-88
2023/09/03 03:25:56;;;;;;;12.40;11.30;;;11.00;99.90;;;;;;6115854;23;20885;-87
2023/09/03 03:28:21;;;;;;;14.10;12.77;;;10.90;99.90;;;;;;6116839;23;20388;-87
2023/09/03 03:30:47;;;;;;;14.03;12.60;;;10.90;99.90;;;;;;6116786;23;20400;-87
2023/09/03 03:33:12;;;;;;;16.35;14.75;;;10.90;99.90;;;;;;6091431;23;20714;-88
2023/09/03 03:35:38;;;;;;;16.33;14.87;;;10.90;99.90;;;;;;6117285;23;20376;-87
2023/09/03 03:38:03;;;;;;;14.77;13.38;;;10.90;99.90;;;;;;6090802;23;20699;-88
2023/09/03 03:40:29;;;;;;;16.47;14.87;;;10.90;99.90;;;;;;6093066;23;20408;-87
2023/09/03 03:42:55;;;;;;;13.65;12.35;;;10.90;99.90;;;;;;6115151;23;20377;-88
2023/09/03 03:45:20;;;;;;;14.63;13.23;;;10.90;99.90;;;;;;6117664;23;20423;-87
2023/09/03 03:47:46;;;;;;;16.17;14.63;;;11.00;99.90;;;;;;6091585;23;20372;-87
2023/09/03 03:50:11;;;;;;;13.10;11.87;;;10.90;99.90;;;;;;6092065;23;20401;-88
2023/09/03 03:52:37;;;;;;;11.70;10.65;;;11.00;99.90;;;;;;6093471;23;20372;-88
2023/09/03 03:55:02;;;;;;;12.93;11.73;;;10.90;99.90;;;;;;6090868;23;20372;-88
2023/09/03 03:57:28;;;;;;;20.77;16.80;;;10.80;99.90;;;;;;6093093;23;20378;-88
2023/09/03 03:59:54;;;;;;;34.33;22.02;;;10.80;99.90;;;;;;6090693;23;20371;-88
2023/09/03 04:02:19;;;;;;;15.83;14.27;;;10.80;99.90;;;;;;6117206;23;20427;-88
2023/09/03 04:04:45;;;;;;;25.02;21.30;;;10.90;99.90;;;;;;6115123;23;20684;-87
2023/09/03 04:07:10;;;;;;;19.90;17.83;;;10.90;99.90;;;;;;6092921;23;20385;-87
2023/09/03 04:09:37;;;;;;;19.27;17.27;;;10.90;99.90;;;;;;6094839;23;20870;-88
2023/09/03 04:12:03;;;;;;;22.42;18.67;;;10.90;99.90;;;;;;6120818;23;20442;-87
2023/09/03 04:14:30;;;;;;;23.35;19.98;;;10.80;99.90;;;;;;6097887;23;20682;-88
2023/09/03 04:16:55;;;;;;;21.92;19.10;;;10.90;99.90;;;;;;6095961;23;20846;-88
2023/09/03 04:19:21;;;;;;;25.00;22.27;;;10.90;99.90;;;;;;6122143;23;20458;-88
2023/09/03 04:21:47;;;;;;;20.80;18.70;;;10.90;99.90;;;;;;6119876;23;20375;-88
2023/09/03 04:24:12;;;;;;;22.38;20.13;;;10.90;99.90;;;;;;6122146;23;20371;-88
2023/09/03 04:26:38;;;;;;;26.17;23.17;;;11.00;99.90;;;;;;6120579;23;20379;-87
2023/09/03 04:29:06;;;;;;;23.73;21.23;;;11.00;99.90;;;;;;6121290;23;20503;-88
2023/09/03 04:31:32;;;;;;;35.92;28.08;;;11.00;99.90;;;;;;6121884;23;20446;-87
2023/09/03 04:33:57;;;;;;;21.17;19.15;;;10.90;99.90;;;;;;6119938;23;20394;-88
2023/09/03 04:36:23;;;;;;;21.43;18.87;;;11.00;99.90;;;;;;6098382;23;20382;-88
2023/09/03 04:38:48;;;;;;;19.15;17.27;;;11.00;99.90;;;;;;6095599;23;20466;-88
2023/09/03 04:41:14;;;;;;;20.87;18.77;;;11.00;99.90;;;;;;6120658;23;20844;-87
2023/09/03 04:43:44;;;;;;;19.90;17.95;;;11.00;99.90;;;;;;6094852;23;20375;-88
2023/09/03 04:46:10;;;;;;;19.00;16.97;;;11.00;99.90;;;;;;6097690;23;20701;-88
2023/09/03 04:48:36;;;;;;;19.58;17.38;;;11.00;99.90;;;;;;6099223;23;20382;-88
2023/09/03 04:51:03;;;;;;;21.30;19.00;;;11.00;99.90;;;;;;6122060;23;20957;-88
2023/09/03 04:53:32;;;;;;;22.17;19.80;;;11.00;99.90;;;;;;6124157;23;20375;-88
2023/09/03 04:55:58;;;;;;;28.20;22.98;;;11.10;99.90;;;;;;6121064;23;20367;-88
2023/09/03 04:58:24;;;;;;;21.55;17.67;;;11.10;99.90;;;;;;6123543;23;20381;-88
2023/09/03 05:00:50;;;;;;;18.75;16.95;;;11.30;99.90;;;;;;6121350;23;20843;-88
2023/09/03 05:03:15;;;;;;;19.60;17.60;;;11.20;99.90;;;;;;6123170;23;20371;-88
2023/09/03 05:05:44;;;;;;;19.60;17.58;;;11.40;99.90;;;;;;6098296;23;20377;-88
2023/09/03 05:08:10;;;;;;;19.25;17.25;;;11.10;99.90;;;;;;6122690;23;20382;-88
2023/09/03 05:10:37;;;;;;;18.88;16.95;;;11.20;99.90;;;;;;6143128;23;20491;-88
2023/09/03 05:13:06;;;;;;;22.98;20.25;;;11.40;99.90;;;;;;6091820;23;20443;-89
2023/09/03 05:15:32;;;;;;;21.47;18.37;;;11.30;99.90;;;;;;6118533;23;20383;-88
2023/09/03 05:17:58;;;;;;;20.50;18.38;;;11.60;99.90;;;;;;6115889;23;20734;-88
2023/09/03 05:20:23;;;;;;;22.90;20.53;;;11.50;99.90;;;;;;6118779;23;20533;-88
2023/09/03 05:22:49;;;;;;;27.92;23.25;;;11.40;99.90;;;;;;6116883;23;20380;-88
2023/09/03 05:25:15;;;;;;;38.57;25.00;;;11.40;99.90;;;;;;6117832;23;20687;-89
2023/09/03 05:27:40;;;;;;;19.30;17.40;;;11.50;99.90;;;;;;6117913;23;20385;-88
2023/09/03 05:30:06;;;;;;;18.70;16.70;;;11.70;99.90;;;;;;6116539;23;20890;-87
2023/09/03 05:32:32;;;;;;;17.13;15.43;;;11.70;99.90;;;;;;6118399;23;20391;-88
2023/09/03 05:34:57;;;;;;;23.75;19.92;;;11.40;99.90;;;;;;6091798;23;20859;-89
2023/09/03 05:37:23;;;;;;;22.23;19.60;;;12.10;99.90;;;;;;6094123;23;20381;-88
2023/09/03 05:39:50;;;;;;;19.63;17.60;;;12.00;99.90;;;;;;6091878;23;20934;-88
2023/09/03 05:42:16;;;;;;;22.13;18.73;;;12.50;99.90;;;;;;6118059;23;20388;-89
2023/09/03 05:44:41;;;;;;;24.13;20.88;;;12.80;99.90;;;;;;6092894;23;20381;-88
2023/09/03 05:47:07;;;;;;;22.40;19.90;;;12.20;99.90;;;;;;6092793;23;20368;-89
2023/09/03 05:49:33;;;;;;;26.10;21.40;;;12.50;99.90;;;;;;6118467;23;20761;-87
2023/09/03 05:51:59;;;;;;;20.50;18.40;;;12.70;99.90;;;;;;6092077;23;20387;-88
2023/09/03 05:54:25;;;;;;;19.08;17.15;;;12.60;99.90;;;;;;6118869;23;20373;-89
2023/09/03 05:56:50;;;;;;;21.17;18.93;;;12.60;99.90;;;;;;6116051;23;20381;-89
2023/09/03 05:59:16;;;;;;;20.77;18.58;;;12.90;99.90;;;;;;6093912;23;20381;-89
2023/09/03 06:01:41;;;;;;;20.77;18.67;;;12.90;99.90;;;;;;6116681;23;20433;-88
2023/09/03 06:04:09;;;;;;;21.40;19.20;;;12.50;99.90;;;;;;6118135;23;20369;-90
2023/09/03 06:06:38;;;;;;;22.90;20.38;;;13.00;99.90;;;;;;6118233;23;20419;-88
2023/09/03 06:09:05;;;;;;;22.17;19.77;;;13.00;99.90;;;;;;6092310;23;20881;-89
2023/09/03 06:11:35;;;;;;;19.48;17.58;;;13.20;99.90;;;;;;6093801;23;20407;-90
2023/09/03 06:14:01;;;;;;;21.70;19.42;;;13.30;99.90;;;;;;6116190;23;21106;-89
2023/09/03 06:16:27;;;;;;;22.23;19.90;;;13.20;99.90;;;;;;6118386;23;20390;-88
2023/09/03 06:18:53;;;;;;;22.75;20.33;;;13.20;99.90;;;;;;6116102;23;20895;-89
2023/09/03 06:21:19;;;;;;;27.85;23.73;;;13.70;99.90;;;;;;6093858;23;20389;-88
2023/09/03 06:23:44;;;;;;;25.10;22.52;;;13.80;99.90;;;;;;6117635;23;20384;-88
2023/09/03 06:26:10;;;;;;;22.13;20.03;;;13.00;99.90;;;;;;6117166;23;20380;-88
2023/09/03 06:28:35;;;;;;;23.70;21.35;;;13.30;99.90;;;;;;6118306;23;20861;-90
2023/09/03 06:31:02;;;;;;;25.20;22.57;;;14.20;99.90;;;;;;6091889;23;20850;-89
2023/09/03 06:33:27;;;;;;;27.23;24.33;;;13.90;99.90;;;;;;6094321;23;20369;-88
2023/09/03 06:35:53;;;;;;;24.33;21.95;;;14.10;99.90;;;;;;6115976;23;20424;-87
2023/09/03 06:38:19;;;;;;;29.42;26.42;;;14.30;99.90;;;;;;6093996;23;20410;-89
2023/09/03 06:40:44;;;;;;;25.03;22.83;;;14.70;99.90;;;;;;6116674;23;20479;-89
2023/09/03 06:43:10;;;;;;;26.20;23.70;;;14.70;99.90;;;;;;6093128;23;20738;-88
2023/09/03 06:45:36;;;;;;;27.30;24.70;;;14.90;99.90;;;;;;6093304;23;20377;-88
2023/09/03 06:48:02;;;;;;;26.77;23.97;;;14.70;99.90;;;;;;6091704;23;20368;-89
2023/09/03 06:50:27;;;;;;;24.45;22.05;;;14.90;99.90;;;;;;6118058;23;20405;-89
2023/09/03 06:52:53;;;;;;;26.70;23.90;;;15.20;99.90;;;;;;6091412;23;20369;-88
2023/09/03 06:55:18;;;;;;;22.67;20.58;;;15.50;99.90;;;;;;6118177;23;20924;-89
2023/09/03 06:57:44;;;;;;;23.00;20.90;;;15.30;99.90;;;;;;6091163;23;20480;-89
2023/09/03 07:00:11;;;;;;;19.70;18.02;;;15.40;99.90;;;;;;6093742;23;20870;-90
2023/09/03 07:02:36;;;;;;;19.67;17.85;;;15.60;99.90;;;;;;6117035;23;20372;-88
2023/09/03 07:05:02;;;;;;;20.05;18.27;;;16.20;99.90;;;;;;6092582;23;20395;-89
2023/09/03 07:07:28;;;;;;;18.90;17.20;;;16.10;99.90;;;;;;6094091;23;20376;-89
2023/09/03 07:09:54;;;;;;;16.27;14.87;;;16.00;99.90;;;;;;6091174;23;20415;-89
2023/09/03 07:12:20;;;;;;;16.87;15.43;;;16.40;99.90;;;;;;6117550;23;20388;-89
2023/09/03 07:14:46;;;;;;;16.55;14.95;;;16.60;99.90;;;;;;6115351;23;20438;-91
2023/09/03 07:17:12;;;;;;;15.63;14.32;;;16.80;99.90;;;;;;6093719;23;20385;-89
2023/09/03 07:19:38;;;;;;;15.30;14.07;;;17.30;99.90;;;;;;6091110;23;20369;-88
2023/09/03 07:22:04;;;;;;;13.55;12.40;;;17.50;99.90;;;;;;6093068;23;20381;-89
2023/09/03 07:24:29;;;;;;;14.65;13.40;;;17.70;99.90;;;;;;6093324;23;20774;-90
2023/09/03 07:26:55;;;;;;;13.93;12.63;;;17.10;99.90;;;;;;6091870;23;20385;-90
2023/09/03 07:29:21;;;;;;;12.40;11.25;;;17.80;99.90;;;;;;6093905;23;20423;-90
2023/09/03 07:31:46;;;;;;;11.73;10.73;;;18.00;99.90;;;;;;6091346;23;20977;-90
2023/09/03 07:34:13;;;;;;;11.85;10.85;;;18.10;99.90;;;;;;6118712;23;20419;-90
2023/09/03 07:36:39;;;;;;;13.30;12.20;;;17.90;99.90;;;;;;6091592;23;20377;-90
2023/09/03 07:39:05;;;;;;;11.63;10.50;;;18.30;99.90;;;;;;6094014;23;20381;-91
2023/09/03 07:41:31;;;;;;;11.73;10.63;;;17.90;99.90;;;;;;6092969;23;20416;-90
2023/09/03 07:43:57;;;;;;;12.10;11.10;;;18.40;99.90;;;;;;6093048;23;20857;-92
2023/09/03 07:46:24;;;;;;;11.00;10.10;;;18.50;99.90;;;;;;6119546;23;20416;-90
2023/09/03 07:48:49;;;;;;;9.55;8.65;;;18.50;99.90;;;;;;6092161;23;20389;-90
2023/09/03 07:51:17;;;;;;;8.40;7.60;;;18.60;99.90;;;;;;6094686;23;21036;-92
2023/09/03 07:53:43;;;;;;;8.32;7.53;;;18.40;99.90;;;;;;6116811;23;20379;-91
2023/09/03 07:56:09;;;;;;;8.50;7.20;;;18.80;99.90;;;;;;6094338;23;20878;-91
2023/09/03 07:58:34;;;;;;;8.68;7.88;;;19.10;99.90;;;;;;6092182;23;20819;-90
2023/09/03 08:01:00;;;;;;;7.67;6.00;;;18.50;99.90;;;;;;6118105;23;20466;-91
2023/09/03 08:03:35;;;;;;;8.93;6.97;;;18.50;99.90;;;;;;6093593;23;20850;-91
2023/09/03 08:06:05;;;;;;;7.57;6.88;;;18.50;99.90;;;;;;6092103;23;20513;-90
2023/09/03 08:08:31;;;;;;;7.43;6.72;;;18.50;99.90;;;;;;6093613;23;20381;-91
2023/09/03 08:10:57;;;;;;;7.15;6.45;;;18.80;99.90;;;;;;6090509;23;20699;-91
2023/09/03 08:13:23;;;;;;;6.90;6.20;;;18.90;99.90;;;;;;6093673;23;20368;-91
2023/09/03 08:15:49;;;;;;;7.25;6.55;;;19.10;99.90;;;;;;6091836;23;20468;-90
2023/09/03 08:18:15;;;;;;;6.85;5.55;;;18.80;99.90;;;;;;6093338;23;20417;-91
2023/09/03 08:20:41;;;;;;;6.63;6.03;;;18.90;99.90;;;;;;6117275;23;20707;-89
2023/09/03 08:23:13;;;;;;;4.75;3.95;;;19.10;99.90;;;;;;6093881;23;20384;-89
2023/09/03 08:25:40;;;;;;;6.28;5.03;;;18.90;99.90;;;;;;6119104;23;20381;-89
2023/09/03 08:28:08;;;;;;;6.80;5.53;;;19.10;99.90;;;;;;6092583;23;20372;-89
2023/09/03 08:30:34;;;;;;;6.18;4.88;;;19.00;99.90;;;;;;6094545;23;20399;-89
2023/09/03 08:33:00;;;;;;;6.47;5.30;;;19.50;99.90;;;;;;6116693;23;20372;-90
2023/09/03 08:35:27;;;;;;;6.93;6.30;;;19.10;99.90;;;;;;6119037;23;20381;-89
2023/09/03 08:37:53;;;;;;;5.80;5.22;;;19.30;99.90;;;;;;6120591;23;20460;-95
2023/09/03 08:40:19;;;;;;;7.22;6.22;;;19.40;99.90;;;;;;6095491;23;20412;-94
2023/09/03 08:42:48;;;;;;;6.60;5.45;;;19.60;99.90;;;;;;6097251;23;20373;-92
2023/09/03 08:45:17;;;;;;;5.85;5.28;;;19.40;99.90;;;;;;6093594;23;20384;-96
2023/09/03 08:47:44;;;;;;;6.15;5.55;;;19.70;99.90;;;;;;6097017;23;20467;-94
2023/09/03 08:50:16;;;;;;;7.38;5.82;;;19.80;99.90;;;;;;6119226;23;20404;-94
2023/09/03 08:52:43;;;;;;;6.22;5.47;;;19.50;99.90;;;;;;6098104;23;20428;-94
2023/09/03 08:55:13;;;;;;;5.85;4.70;;;19.80;99.90;;;;;;6095584;23;20422;-93
2023/09/03 08:57:39;;;;;;;5.90;5.00;;;20.10;99.90;;;;;;6096486;23;20393;-93
2023/09/03 09:00:06;;;;;;;4.85;4.35;;;20.00;99.90;;;;;;6096732;23;20369;-94
2023/09/03 09:02:36;;;;;;;6.28;5.05;;;20.20;99.90;;;;;;6094190;23;20377;-94
2023/09/03 09:05:08;;;;;;;6.53;5.38;;;20.30;99.90;;;;;;6101098;23;20388;-95
2023/09/03 09:07:34;;;;;;;6.88;5.53;;;20.30;99.90;;;;;;6093731;23;20773;-95
2023/09/03 09:10:06;;;;;;;6.07;4.57;;;20.80;99.90;;;;;;6106481;23;20403;-94
2023/09/03 09:13:24;;;;;;;4.78;4.25;;;20.40;99.90;;;;;;6104761;23;20465;-96
2023/09/03 09:15:53;;;;;;;5.30;4.50;;;20.50;99.90;;;;;;6092784;23;20386;-95
2023/09/03 09:18:19;;;;;;;5.50;4.30;;;21.50;99.90;;;;;;6110677;23;20394;-94
2023/09/03 09:20:53;;;;;;;4.68;3.40;;;20.90;99.90;;;;;;6109354;23;20379;-96
2023/09/03 09:24:18;;;;;;;5.50;3.77;;;20.90;99.90;;;;;;6113101;23;20369;-94
2023/09/03 09:26:50;;;;;;;4.37;3.63;;;21.00;99.90;;;;;;6106040;23;20407;-95
2023/09/03 09:29:21;;;;;;;5.40;3.58;;;21.40;99.90;;;;;;6110273;23;20458;-96
2023/09/03 09:31:50;;;;;;;5.78;3.97;;;21.00;99.90;;;;;;6103288;23;20399;-95
2023/09/03 09:34:17;;;;;;;4.75;4.07;;;21.80;99.90;;;;;;6105380;23;20410;-95
2023/09/03 09:36:54;;;;;;;4.88;3.67;;;21.80;99.90;;;;;;6100995;23;20379;-95
2023/09/03 09:39:19;;;;;;;5.57;4.30;;;21.60;99.90;;;;;;6101126;23;20394;-94
2023/09/03 09:42:05;;;;;;;6.00;4.22;;;21.60;99.90;;;;;;6099093;23;20371;-95
2023/09/03 09:48:10;;;;;;;3.88;1.90;;;21.60;99.90;;;;;;6127414;23;20386;-95
2023/09/03 09:51:08;;;;;;;3.03;1.83;;;22.00;99.90;;;;;;6107139;23;20409;-95
2023/09/03 09:53:37;;;;;;;2.85;1.95;;;22.20;99.90;;;;;;6101861;23;20386;-95
2023/09/03 09:56:13;;;;;;;3.67;1.80;;;22.60;99.90;;;;;;6100704;23;20863;-96
2023/09/03 09:58:40;;;;;;;3.33;1.40;;;22.90;99.90;;;;;;6111372;23;20386;-94
2023/09/03 10:01:07;;;;;;;2.30;1.30;;;23.10;99.90;;;;;;6103546;23;20378;-94
2023/09/03 10:03:51;;;;;;;3.10;1.42;;;23.00;99.90;;;;;;6077663;23;20379;-94
2023/09/03 10:06:22;;;;;;;3.22;1.38;;;23.50;99.90;;;;;;6099284;23;20462;-95
2023/09/03 10:08:51;;;;;;;2.70;1.20;;;23.80;98.70;;;;;;6100959;23;20461;-95
2023/09/03 10:11:17;;;;;;;3.55;1.60;;;24.20;97.00;;;;;;6098794;23;20455;-94
2023/09/03 10:13:44;;;;;;;4.57;1.70;;;24.50;94.20;;;;;;6099778;23;20467;-95
2023/09/03 10:16:10;;;;;;;4.65;1.60;;;24.50;87.40;;;;;;6099973;23;20387;-94
2023/09/03 10:18:44;;;;;;;3.53;2.00;;;24.50;80.20;;;;;;6097170;23;20458;-95
2023/09/03 10:21:11;;;;;;;2.65;1.40;;;23.90;80.70;;;;;;6100305;23;20383;-94
2023/09/03 10:23:46;;;;;;;2.08;1.00;;;24.10;83.90;;;;;;6096874;23;20855;-94
2023/09/03 10:26:28;;;;;;;3.15;1.23;;;23.70;77.70;;;;;;6100026;23;20462;-95
2023/09/03 10:29:17;;;;;;;;;;;;;;;;;;;;;
2023/09/03 10:31:50;;;;;;;2.10;1.00;;;24.80;77.10;;;;;;6115179;23;20403;-95
2023/09/03 10:34:16;;;;;;;2.85;1.17;;;25.90;74.60;;;;;;6100843;23;20371;-93
2023/09/03 10:37:11;;;;;;;2.72;1.00;;;25.80;68.70;;;;;;6098275;23;20368;-94
2023/09/03 10:39:40;;;;;;;5.72;1.40;;;25.80;63.20;;;;;;6100089;23;20848;-94
2023/09/03 10:42:17;;;;;;;3.58;1.20;;;25.60;61.70;;;;;;6099112;23;20380;-94
2023/09/03 10:44:50;;;;;;;4.63;1.25;;;25.50;63.20;;;;;;6098168;23;20383;-92
2023/09/03 10:47:19;;;;;;;6.43;2.17;;;25.40;60.50;;;;;;6100285;23;20402;-93
2023/09/03 10:49:47;;;;;;;2.70;1.85;;;25.50;77.80;;;;;;6097577;23;20371;-94
2023/09/03 10:52:43;;;;;;;2.78;1.60;;;25.90;69.80;;;;;;6099947;23;20411;-93
2023/09/03 10:55:13;;;;;;;1.85;1.30;;;26.30;70.80;;;;;;6092569;23;20375;-94
2023/09/03 10:57:40;;;;;;;2.63;1.00;;;26.60;61.50;;;;;;6098834;23;20381;-93
2023/09/03 11:00:10;;;;;;;2.70;1.13;;;27.10;57.30;;;;;;6124888;23;20450;-93
2023/09/03 11:02:37;;;;;;;2.53;1.35;;;26.90;57.60;;;;;;6097708;23;20780;-94
2023/09/03 11:05:12;;;;;;;2.70;1.05;;;26.70;58.70;;;;;;6099631;23;20394;-94
2023/09/03 11:07:38;;;;;;;3.28;1.02;;;26.80;63.00;;;;;;6097975;23;20437;-93
2023/09/03 11:10:24;;;;;;;1.92;0.82;;;26.90;57.20;;;;;;6099368;23;20399;-95
2023/09/03 11:12:51;;;;;;;2.10;0.70;;;27.00;64.00;;;;;;6099534;23;20383;-94
2023/09/03 11:15:18;;;;;;;2.10;0.50;;;27.30;65.40;;;;;;6097428;23;20371;-93
2023/09/03 11:17:55;;;;;;;2.30;0.73;;;27.50;61.80;;;;;;6100374;23;20372;-93
2023/09/03 11:20:30;;;;;;;2.33;0.67;;;27.60;54.90;;;;;;6097223;23;20382;-95
2023/09/03 11:22:57;;;;;;;2.03;0.77;;;27.60;56.50;;;;;;6099700;23;20449;-93
2023/09/03 11:25:37;;;;;;;2.25;0.60;;;27.80;55.90;;;;;;6098743;23;20386;-93
2023/09/03 11:28:14;;;;;;;1.67;0.50;;;28.10;53.20;;;;;;6123606;23;20367;-95
2023/09/03 11:30:44;;;;;;;1.95;0.60;;;28.30;58.00;;;;;;6101118;23;20395;-96
2023/09/03 11:33:28;;;;;;;1.75;0.60;;;28.60;54.30;;;;;;6097173;23;20713;-96
2023/09/03 11:36:21;;;;;;;2.38;0.50;;;29.00;53.30;;;;;;6098342;23;20395;-95
2023/09/03 11:38:51;;;;;;;1.67;0.40;;;29.10;48.70;;;;;;6072362;23;20388;-96
2023/09/03 11:41:20;;;;;;;2.33;0.50;;;29.50;49.80;;;;;;6071012;23;20432;-96
2023/09/03 11:43:47;;;;;;;1.80;0.55;;;29.90;50.70;;;;;;6068428;23;20377;-93
2023/09/03 11:46:14;;;;;;;2.13;0.60;;;30.00;49.80;;;;;;6071193;23;20391;-95
2023/09/03 11:48:41;;;;;;;2.05;0.77;;;30.10;51.80;;;;;;6069615;23;20405;-94
2023/09/03 11:51:07;;;;;;;2.15;0.70;;;30.10;47.60;;;;;;6071104;23;20396;-94
2023/09/03 11:53:42;;;;;;;1.70;0.50;;;30.10;50.80;;;;;;6069153;23;20694;-94
2023/09/03 11:56:12;;;;;;;1.40;0.50;;;30.30;50.00;;;;;;6069178;23;20381;-95
2023/09/03 11:58:39;;;;;;;1.80;0.40;;;30.50;48.30;;;;;;6071280;23;20373;-94
2023/09/03 12:01:06;;;;;;;3.53;0.63;;;30.50;46.30;;;;;;6068686;23;20427;-91
2023/09/03 12:03:32;;;;;;;1.95;0.50;;;30.40;47.80;;;;;;6071456;23;20408;-95
2023/09/03 12:05:58;;;;;;;1.58;0.55;;;30.50;50.60;;;;;;6068755;23;20384;-94
2023/09/03 12:08:24;;;;;;;1.77;0.50;;;30.50;48.60;;;;;;6072783;23;20377;-94
2023/09/03 12:10:50;;;;;;;1.55;0.40;;;30.60;49.00;;;;;;6070712;23;20896;-95
2023/09/03 12:13:34;;;;;;;1.75;0.35;;;30.90;48.60;;;;;;6070821;23;20377;-94
2023/09/03 12:16:10;;;;;;;2.00;0.40;;;31.20;45.80;;;;;;6070995;23;20858;-94
2023/09/03 12:18:38;;;;;;;1.90;0.45;;;31.50;46.30;;;;;;6067820;23;20385;-96
2023/09/03 12:21:08;;;;;;;1.33;0.30;;;31.60;43.90;;;;;;6071016;23;20376;-94
2023/09/03 12:23:37;;;;;;;1.58;0.40;;;31.60;43.40;;;;;;6068446;23;20376;-95
2023/09/03 12:26:04;;;;;;;1.80;0.60;;;31.40;42.40;;;;;;6071388;23;20944;-95
2023/09/03 12:28:36;;;;;;;1.60;0.40;;;31.20;45.00;;;;;;6070438;23;20369;-94
2023/09/03 12:31:06;;;;;;;1.50;0.40;;;31.00;45.50;;;;;;6069383;23;20419;-94
2023/09/03 12:33:32;;;;;;;2.03;0.40;;;31.10;44.70;;;;;;6071027;23;20377;-94
2023/09/03 12:36:09;;;;;;;2.00;0.40;;;31.40;46.60;;;;;;6068827;23;20463;-94
2023/09/03 12:38:49;;;;;;;1.25;0.32;;;31.80;44.40;;;;;;6094458;23;20373;-95
2023/09/03 12:41:15;;;;;;;1.30;0.40;;;32.00;45.90;;;;;;6092936;23;20384;-95
2023/09/03 12:43:41;;;;;;;2.58;0.40;;;32.30;46.30;;;;;;6094580;23;20839;-95
2023/09/03 12:46:08;;;;;;;1.27;0.40;;;31.90;41.20;;;;;;6094453;23;20373;-95
2023/09/03 12:48:34;;;;;;;2.22;0.32;;;31.50;44.60;;;;;;6092676;23;20484;-95